WetterOnline ( https://www.wetteronline.at )

Wetter aktuell Magdeburg

Aktuelles Wetter: Magdeburg (85m)

6-stündlich | Neueste Meldungen
Ortszeit Temperatur Wetter
Di, 25.02. 19:00 6.6° C fast wolkenlos
Di, 25.02. 13:00 9.5° C wolkig
Di, 25.02. 7:00 9.0° C leichter Regen
Di, 25.02. 1:00 10.4° C bewölkt
Mo, 24.02. 19:00 4.5° C leichter Regen
Mo, 24.02. 13:00 7.1° C bedeckt
Mo, 24.02. 7:00 4.0° C wolkenlos
Mo, 24.02. 1:00 4.4° C wolkenlos
Ortszeit Temperatur Wetter
Di, 25.02. 19:30 5.1° C fast wolkenlos
Di, 25.02. 19:20 5.1° C fast wolkenlos
Di, 25.02. 19:10 5.7° C fast wolkenlos
Di, 25.02. 19:00 6.6° C fast wolkenlos
Di, 25.02. 18:50 6.6° C fast wolkenlos
Di, 25.02. 18:40 6.9° C wolkenlos
Di, 25.02. 18:30 7.2° C wolkenlos
Di, 25.02. 18:00 7.3° C wolkenlos
Di, 25.02. 17:30 8.0° C wolkenlos
Di, 25.02. 17:00 8.5° C fast wolkenlos
Di, 25.02. 16:30 8.8° C wolkenlos
Di, 25.02. 16:00 8.9° C wolkenlos
Ortszeit Relative Feuchte Sichtweite
Di, 25.02. 19:00 59% >70 km
Di, 25.02. 13:00 61% 60 km
Di, 25.02. 7:00 80% 27 km
Di, 25.02. 1:00 81% >70 km
Mo, 24.02. 19:00 87% 40 km
Mo, 24.02. 13:00 68% 40 km
Mo, 24.02. 7:00 77% 35 km
Mo, 24.02. 1:00 77% 40 km
Ortszeit Relative Feuchte Sichtweite
Di, 25.02. 19:30 68% 50 km
Di, 25.02. 19:20 68% -
Di, 25.02. 19:10 64% -
Di, 25.02. 19:00 59% >70 km
Di, 25.02. 18:50 59% -
Di, 25.02. 18:40 57% -
Di, 25.02. 18:30 56% 60 km
Di, 25.02. 18:00 61% 45 km
Di, 25.02. 17:30 57% 50 km
Di, 25.02. 17:00 58% 60 km
Di, 25.02. 16:30 60% 55 km
Di, 25.02. 16:00 56% 50 km
Ortszeit Niederschlagsmenge Niederschlagsart
Di, 25.02. 19:00 2 l/m2 in 12 Std. Regen
Di, 25.02. 13:00 2 l/m2 in 6 Std. Regen
Di, 25.02. 7:00 2 l/m2 in 12 Std. Regen
Di, 25.02. 1:00 2 l/m2 in 6 Std. Regen
Mo, 24.02. 19:00 0.2 l/m2 in 12 Std. Regen
Mo, 24.02. 13:00 0.1 l/m2 in 6 Std. Niederschlag
Mo, 24.02. 7:00 0.2 l/m2 in 12 Std. -
Mo, 24.02. 1:00 0.2 l/m2 in 6 Std. Regen
Ortszeit Niederschlagsmenge Niederschlagsart
Di, 25.02. 19:30 0.0 l/m2 in 1 Std. -
Di, 25.02. 19:20 keine Meldung -
Di, 25.02. 19:10 keine Meldung -
Di, 25.02. 19:00 0.0 l/m2 in 1 Std. Regen
Di, 25.02. 18:50 keine Meldung -
Di, 25.02. 18:40 keine Meldung -
Di, 25.02. 18:30 0.0 l/m2 in 1 Std. -
Di, 25.02. 18:00 0.0 l/m2 in 1 Std. -
Di, 25.02. 17:30 0.0 l/m2 in 1 Std. -
Di, 25.02. 17:00 0.0 l/m2 in 1 Std. -
Di, 25.02. 16:30 0.0 l/m2 in 1 Std. -
Di, 25.02. 16:00 0.1 l/m2 in 1 Std. Regen
Ortszeit Stärke Spitze Richtung
km/h Bft. km/h Grad Sektor
Di, 25.02. 19:00 9 2 50 230° SW
Di, 25.02. 13:00 19 3 44 250° W
Di, 25.02. 7:00 22 4 40 260° W
Di, 25.02. 1:00 18 3 40 230° SW
Mo, 24.02. 19:00 20 4 43 170° S
Mo, 24.02. 13:00 11 2 32 210° SW
Mo, 24.02. 7:00 15 3 43 270° W
Mo, 24.02. 1:00 22 4 69 290° W
Ortszeit Stärke Spitze Richtung
km/h Bft. km/h Grad Sektor
Di, 25.02. 19:30 7 2 14 210° SW
Di, 25.02. 19:20 7 2 - 210° SW
Di, 25.02. 19:10 7 2 - 220° SW
Di, 25.02. 19:00 9 2 22 230° SW
Di, 25.02. 18:50 9 2 - 230° SW
Di, 25.02. 18:40 11 2 - 230° SW
Di, 25.02. 18:30 13 3 22 240° SW
Di, 25.02. 18:00 11 2 25 250° W
Di, 25.02. 17:30 13 3 26 260° W
Di, 25.02. 17:00 11 2 43 270° W
Di, 25.02. 16:30 18 3 43 270° W
Di, 25.02. 16:00 25 4 50 260° W
Ortszeit Untergrenze Bedeckung Gattung
total tief tief mittel hoch
Di, 25.02. 19:00 7500 m 1/8 0/8 - - -
Di, 25.02. 13:00 1110 m 5/8 6/8 - - -
Di, 25.02. 7:00 720 m 7/8 8/8 - - -
Di, 25.02. 1:00 630 m 7/8 8/8 - - -
Mo, 24.02. 19:00 570 m 8/8 8/8 - - -
Mo, 24.02. 13:00 2700 m 8/8 8/8 - - -
Mo, 24.02. 7:00 - 0/8 0/8 - - -
Mo, 24.02. 1:00 - 0/8 0/8 - - -
Ortszeit Bedeckungsgrad in Achtel und Wolkenuntergrenze
Di, 25.02. 19:30 1(2400m)
Di, 25.02. 19:20 1(2400m) 1(7500m)
Di, 25.02. 19:10 1(7500m)
Di, 25.02. 19:00 1(7500m)
Di, 25.02. 18:50 1(7500m)
Di, 25.02. 18:40 keine Wolken
Di, 25.02. 18:30 keine Wolken
Di, 25.02. 18:00 keine Wolken
Di, 25.02. 17:30 keine Wolken
Di, 25.02. 17:00 1(1500m)
Di, 25.02. 16:30 keine Wolken
Di, 25.02. 16:00 keine Wolken
Ortszeit Luftdruck NN (hPa) Tendenz (hPa in 3 Std.)
Di, 25.02. 19:00 996 - 0,6
Di, 25.02. 13:00 997 - 0,9
Di, 25.02. 7:00 999 - 0,4
Di, 25.02. 1:00 1000 - 1,9
Mo, 24.02. 19:00 1006 - 6,7
Mo, 24.02. 13:00 1018 - 2,9
Mo, 24.02. 7:00 1020 + 1,2
Mo, 24.02. 1:00 1017 + 3,8
Ortszeit Luftdruck NN (hPa) Tendenz (hPa in 3 Std.)
Di, 25.02. 19:30 996 - 0,7
Di, 25.02. 19:20 996 keine Meldung
Di, 25.02. 19:10 996 keine Meldung
Di, 25.02. 19:00 996 - 0,6
Di, 25.02. 18:50 996 keine Meldung
Di, 25.02. 18:40 996 keine Meldung
Di, 25.02. 18:30 996 - 0,7
Di, 25.02. 18:00 996 - 0,3
Di, 25.02. 17:30 996 - 0,2
Di, 25.02. 17:00 996 - 0,3
Di, 25.02. 16:30 997 - 0,5
Di, 25.02. 16:00 996 - 0,7
Ortszeit Schneehöhe (cm)
Di, 25.02. 19:00 0
Di, 25.02. 13:00 0
Di, 25.02. 7:00 0
Di, 25.02. 1:00 0
Mo, 24.02. 19:00 0
Mo, 24.02. 13:00 0
Mo, 24.02. 7:00 0
Mo, 24.02. 1:00 0
Ortszeit Schneehöhe (cm)
Di, 25.02. 19:30 0
Di, 25.02. 19:20 0
Di, 25.02. 19:10 0
Di, 25.02. 19:00 0
Di, 25.02. 18:50 0
Di, 25.02. 18:40 0
Di, 25.02. 18:30 0
Di, 25.02. 18:00 0
Di, 25.02. 17:30 0
Di, 25.02. 17:00 0
Di, 25.02. 16:30 0
Di, 25.02. 16:00 0
Link zu dieser Seite / Seite empfehlen

Das Wetter in ...